createdAt,value
2023-04-05T00:00:54.760Z,66.11
2023-04-05T00:03:24.413Z,66.28
2023-04-05T00:05:55.032Z,66.53
2023-04-05T00:08:27.174Z,66.66
2023-04-05T00:10:56.177Z,66.79
2023-04-05T00:13:24.435Z,66.87
2023-04-05T00:15:52.817Z,67.03
2023-04-05T00:18:24.524Z,67.05
2023-04-05T00:20:53.065Z,67.06
2023-04-05T00:23:22.940Z,67.18
2023-04-05T00:25:51.445Z,67.12
2023-04-05T00:28:20.164Z,67.09
2023-04-05T00:30:48.714Z,67.09
2023-04-05T00:33:18.425Z,67.13
2023-04-05T00:35:47.250Z,67.26
2023-04-05T00:38:15.909Z,67.57
2023-04-05T00:40:44.582Z,67.74
2023-04-05T00:43:15.789Z,67.79
2023-04-05T00:45:45.140Z,67.73
2023-04-05T00:48:16.379Z,67.77
2023-04-05T00:50:44.752Z,67.69
2023-04-05T00:53:15.995Z,67.69
2023-04-05T00:55:44.581Z,67.81
2023-04-05T00:58:13.773Z,67.89
2023-04-05T01:00:42.301Z,67.87
2023-04-05T01:03:14.133Z,67.86
2023-04-05T01:06:03.378Z,67.82
2023-04-05T01:08:39.245Z,67.76
2023-04-05T01:11:07.612Z,67.77
2023-04-05T01:13:37.934Z,67.86
2023-04-05T01:16:06.664Z,68.00
2023-04-05T01:18:36.746Z,67.83
2023-04-05T01:21:07.889Z,67.85
2023-04-05T01:23:37.857Z,67.78
2023-04-05T01:26:18.463Z,67.73
2023-04-05T01:28:52.789Z,67.67
2023-04-05T01:31:40.248Z,67.70
2023-04-05T01:34:20.256Z,67.69
2023-04-05T01:36:55.400Z,67.64
2023-04-05T01:39:24.081Z,67.51
2023-04-05T01:41:52.254Z,67.57
2023-04-05T01:44:20.604Z,67.28
2023-04-05T01:46:49.035Z,67.09
2023-04-05T01:49:19.657Z,67.38
2023-04-05T01:51:47.917Z,67.60
2023-04-05T01:54:16.192Z,67.54
2023-04-05T01:56:45.162Z,67.42
2023-04-05T01:59:13.410Z,67.28
2023-04-05T02:01:42.371Z,67.30
2023-04-05T02:04:11.649Z,67.16
2023-04-05T02:06:41.172Z,67.18
2023-04-05T02:09:11.170Z,67.28
2023-04-05T02:11:39.557Z,67.11
2023-04-05T02:14:07.934Z,67.10
2023-04-05T02:16:36.517Z,66.98
2023-04-05T02:19:06.077Z,67.06
2023-04-05T02:21:41.141Z,66.90
2023-04-05T02:24:09.325Z,66.91
2023-04-05T02:26:37.705Z,66.80
2023-04-05T02:29:07.720Z,66.87
2023-04-05T02:31:36.335Z,66.80
2023-04-05T02:34:06.144Z,66.89
2023-04-05T02:36:34.705Z,67.34
2023-04-05T02:39:04.937Z,67.51
2023-04-05T02:41:36.373Z,67.48
2023-04-05T02:44:05.055Z,67.42
2023-04-05T02:46:33.444Z,67.43
2023-04-05T02:49:02.224Z,67.25
2023-04-05T02:51:34.711Z,67.06
2023-04-05T02:54:05.335Z,66.88
2023-04-05T02:56:34.522Z,66.73
2023-04-05T02:59:04.382Z,66.67
2023-04-05T03:01:33.451Z,66.62
2023-04-05T03:04:04.199Z,66.68
2023-04-05T03:06:32.761Z,66.73
2023-04-05T03:09:05.013Z,66.63
2023-04-05T03:11:34.128Z,66.56
2023-04-05T03:14:05.865Z,66.49
2023-04-05T03:16:50.893Z,66.50
2023-04-05T03:19:29.171Z,66.60
2023-04-05T03:22:02.745Z,66.71
2023-04-05T03:24:35.327Z,66.74
2023-04-05T03:27:07.512Z,66.76
2023-04-05T03:29:43.815Z,66.79
2023-04-05T03:32:16.957Z,66.68
2023-04-05T03:34:51.318Z,66.91
2023-04-05T03:37:21.083Z,67.02
2023-04-05T03:40:00.564Z,67.26
2023-04-05T03:42:28.790Z,67.21
2023-04-05T03:44:58.187Z,66.98
2023-04-05T03:47:28.224Z,66.77
2023-04-05T03:49:57.220Z,66.54
2023-04-05T03:52:25.805Z,66.39
2023-04-05T03:54:54.461Z,66.13
2023-04-05T03:57:23.865Z,65.90
2023-04-05T03:59:54.908Z,65.80
2023-04-05T04:02:25.228Z,65.48
2023-04-05T04:04:54.133Z,65.22
2023-04-05T04:07:22.497Z,65.21
2023-04-05T04:09:50.871Z,64.98
2023-04-05T04:12:19.149Z,64.92
2023-04-05T04:14:58.081Z,65.15
2023-04-05T04:17:58.920Z,65.39
2023-04-05T04:20:38.872Z,65.60
2023-04-05T04:23:18.914Z,65.84
2023-04-05T04:26:17.092Z,66.21
2023-04-05T04:29:01.849Z,66.47
2023-04-05T04:31:46.260Z,66.52
2023-04-05T04:34:34.961Z,66.76
2023-04-05T04:37:33.899Z,67.11
2023-04-05T04:40:41.882Z,67.19
2023-04-05T04:43:50.585Z,67.25
2023-04-05T04:46:30.817Z,67.51
2023-04-05T04:49:21.731Z,67.61
2023-04-05T04:51:51.618Z,67.80
2023-04-05T04:54:22.547Z,67.86
2023-04-05T04:56:50.945Z,67.94
2023-04-05T04:59:19.229Z,68.00
2023-04-05T05:01:47.691Z,68.25
2023-04-05T05:04:16.329Z,68.39
2023-04-05T05:06:44.581Z,68.53
2023-04-05T05:09:12.630Z,68.55
2023-04-05T05:12:01.901Z,68.43
2023-04-05T05:14:30.373Z,68.46
2023-04-05T05:17:01.336Z,68.45
2023-04-05T05:19:31.818Z,68.40
2023-04-05T05:22:00.596Z,68.22
2023-04-05T05:24:29.026Z,68.19
2023-04-05T05:26:57.257Z,68.15
2023-04-05T05:29:25.816Z,68.26
2023-04-05T05:31:53.884Z,68.27
2023-04-05T05:34:22.862Z,68.24
2023-04-05T05:37:01.925Z,68.41
2023-04-05T05:39:30.212Z,68.37
2023-04-05T05:41:58.464Z,68.22
2023-04-05T05:44:26.675Z,68.15
2023-04-05T05:46:56.894Z,67.90
2023-04-05T05:49:26.129Z,67.82
2023-04-05T05:51:59.087Z,67.90
2023-04-05T05:54:27.497Z,67.83
2023-04-05T05:56:55.735Z,67.94
2023-04-05T05:59:24.366Z,68.05
2023-04-05T06:01:52.784Z,67.90
2023-04-05T06:04:21.157Z,67.64
2023-04-05T06:06:49.480Z,67.71
2023-04-05T06:09:19.508Z,67.74
2023-04-05T06:11:55.626Z,67.37
2023-04-05T06:14:25.721Z,67.13
2023-04-05T06:16:57.907Z,67.19
2023-04-05T06:19:26.508Z,67.18
2023-04-05T06:21:55.306Z,67.31
2023-04-05T06:24:23.511Z,67.33
2023-04-05T06:26:52.297Z,67.31
2023-04-05T06:29:20.644Z,67.31
2023-04-05T06:31:49.026Z,67.35
2023-04-05T06:34:17.270Z,67.44
2023-04-05T06:36:47.687Z,67.58
2023-04-05T06:39:16.818Z,67.45
2023-04-05T06:41:45.068Z,67.43
2023-04-05T06:44:13.256Z,67.66
2023-04-05T06:46:41.345Z,67.67
2023-04-05T06:49:09.963Z,67.67
2023-04-05T06:51:38.716Z,67.67
2023-04-05T06:54:08.467Z,67.73
2023-04-05T06:56:38.001Z,67.93
2023-04-05T06:59:06.435Z,67.90
2023-04-05T07:01:37.199Z,68.03
2023-04-05T07:04:06.837Z,67.84
2023-04-05T07:06:39.154Z,67.64
2023-04-05T07:09:08.538Z,67.91
2023-04-05T07:11:36.749Z,67.90
2023-04-05T07:14:04.850Z,67.86
2023-04-05T07:16:35.836Z,67.87
2023-04-05T07:19:06.350Z,67.93
2023-04-05T07:21:34.927Z,67.78
2023-04-05T07:24:06.598Z,67.71
2023-04-05T07:26:36.163Z,67.69
2023-04-05T07:29:04.810Z,67.75
2023-04-05T07:31:36.982Z,67.65
2023-04-05T07:34:05.776Z,67.53
2023-04-05T07:36:35.915Z,67.39
2023-04-05T07:39:05.717Z,67.22
2023-04-05T07:41:35.664Z,67.12
2023-04-05T07:44:05.629Z,67.32
2023-04-05T07:46:35.253Z,67.33
2023-04-05T07:49:03.737Z,67.28
2023-04-05T07:51:35.444Z,67.43
2023-04-05T07:54:03.894Z,67.50
2023-04-05T07:56:34.062Z,67.30
2023-04-05T07:59:02.256Z,67.30
2023-04-05T08:01:31.453Z,67.28
2023-04-05T08:03:59.822Z,67.29
2023-04-05T08:06:28.011Z,66.96
2023-04-05T08:08:56.341Z,66.83
2023-04-05T08:11:26.691Z,66.69
2023-04-05T08:13:56.021Z,66.81
2023-04-05T08:16:24.221Z,66.78
2023-04-05T08:18:54.423Z,66.62
2023-04-05T08:21:22.866Z,66.63
2023-04-05T08:23:53.043Z,66.50
2023-04-05T08:26:21.257Z,66.44
2023-04-05T08:28:49.369Z,66.58
2023-04-05T08:31:17.724Z,66.81
2023-04-05T08:33:46.752Z,66.69
2023-04-05T08:36:15.717Z,66.49
2023-04-05T08:38:43.950Z,66.53
2023-04-05T08:41:18.781Z,66.53
2023-04-05T08:43:47.640Z,66.55
2023-04-05T08:46:16.678Z,66.54
2023-04-05T08:48:46.232Z,66.47
2023-04-05T08:51:18.260Z,66.44
2023-04-05T08:53:46.856Z,66.44
2023-04-05T08:56:22.404Z,66.30
2023-04-05T08:59:07.478Z,66.30
2023-04-05T09:01:39.841Z,66.35
2023-04-05T09:04:18.510Z,66.30
2023-04-05T09:06:47.581Z,66.44
2023-04-05T09:09:15.904Z,66.41
2023-04-05T09:11:44.828Z,66.55
2023-04-05T09:14:13.027Z,66.50
2023-04-05T09:16:46.485Z,66.49
2023-04-05T09:19:15.885Z,66.27
2023-04-05T09:22:00.235Z,66.17
2023-04-05T09:24:33.371Z,66.21
2023-04-05T09:27:05.481Z,66.12
2023-04-05T09:29:33.964Z,66.06
2023-04-05T09:32:04.303Z,65.90
2023-04-05T09:34:33.330Z,65.72
2023-04-05T09:37:03.525Z,65.59
2023-04-05T09:39:32.871Z,65.40
2023-04-05T09:42:06.557Z,65.19
2023-04-05T09:44:54.522Z,64.97
2023-04-05T09:47:31.277Z,64.90
2023-04-05T09:50:06.305Z,64.99
2023-04-05T09:52:35.371Z,65.18
2023-04-05T09:55:04.341Z,65.26
2023-04-05T09:57:35.719Z,65.19
2023-04-05T10:00:06.152Z,65.23
2023-04-05T10:02:44.857Z,65.17
2023-04-05T10:05:16.236Z,64.92
2023-04-05T10:07:45.384Z,64.89
2023-04-05T10:10:13.577Z,64.74
2023-04-05T10:12:41.995Z,64.71
2023-04-05T10:15:11.437Z,64.54
2023-04-05T10:17:49.856Z,64.67
2023-04-05T10:20:22.046Z,64.86
2023-04-05T10:22:51.767Z,65.02
2023-04-05T10:25:27.710Z,65.07
2023-04-05T10:28:06.144Z,65.45
2023-04-05T10:30:40.509Z,65.47
2023-04-05T10:33:18.431Z,65.41
2023-04-05T10:35:53.078Z,65.12
2023-04-05T10:38:28.042Z,65.24
2023-04-05T10:41:13.222Z,65.08
2023-04-05T10:43:41.478Z,65.21
2023-04-05T10:46:11.151Z,65.06
2023-04-05T10:48:48.440Z,65.05
2023-04-05T10:51:18.109Z,65.13
2023-04-05T10:53:48.040Z,65.33
2023-04-05T10:56:19.949Z,65.10
2023-04-05T10:58:48.675Z,64.90
2023-04-05T11:01:17.801Z,64.96
2023-04-05T11:03:49.672Z,65.01
2023-04-05T11:06:36.018Z,64.85
2023-04-05T11:09:20.747Z,64.64
2023-04-05T11:11:50.079Z,64.45
2023-04-05T11:14:21.531Z,64.52
2023-04-05T11:16:53.560Z,64.58
2023-04-05T11:19:41.803Z,64.23
2023-04-05T11:22:10.249Z,64.07
2023-04-05T11:24:55.312Z,64.21
2023-04-05T11:27:28.395Z,64.16
2023-04-05T11:29:57.812Z,64.28
2023-04-05T11:32:43.167Z,64.44
2023-04-05T11:35:15.253Z,64.32
2023-04-05T11:37:56.072Z,64.39
2023-04-05T11:40:27.781Z,64.29
2023-04-05T11:43:02.573Z,64.38
2023-04-05T11:45:32.358Z,64.51
2023-04-05T11:48:01.782Z,64.48
2023-04-05T11:50:30.151Z,64.80
2023-04-05T11:53:17.597Z,64.90
2023-04-05T11:55:50.641Z,65.06
2023-04-05T11:58:21.676Z,65.25
2023-04-05T12:01:02.504Z,65.49
2023-04-05T12:03:35.172Z,65.52
2023-04-05T12:06:04.287Z,65.56
2023-04-05T12:08:40.166Z,65.69
2023-04-05T12:11:09.383Z,65.67
2023-04-05T12:13:38.658Z,65.70
2023-04-05T12:16:07.502Z,65.75
2023-04-05T12:18:36.706Z,65.63
2023-04-05T12:21:11.018Z,65.72
2023-04-05T12:23:39.047Z,65.82
2023-04-05T12:26:08.139Z,65.76
2023-04-05T12:28:54.651Z,65.60
2023-04-05T12:31:55.324Z,65.42
2023-04-05T12:34:23.926Z,65.70
2023-04-05T12:36:54.032Z,66.01
2023-04-05T12:39:22.476Z,66.09
2023-04-05T12:41:56.979Z,66.16
2023-04-05T12:44:28.348Z,66.18
2023-04-05T12:47:10.558Z,66.08
2023-04-05T12:49:39.425Z,66.04
2023-04-05T12:52:07.915Z,66.28
2023-04-05T12:54:36.709Z,66.92
2023-04-05T12:57:08.921Z,67.33
2023-04-05T12:59:38.670Z,67.37
2023-04-05T13:02:06.843Z,67.16
2023-04-05T13:04:35.027Z,67.24
2023-04-05T13:07:04.616Z,67.30
2023-04-05T13:09:32.996Z,67.14
2023-04-05T13:12:01.478Z,67.05
2023-04-05T13:14:29.814Z,66.81
2023-04-05T13:16:58.086Z,66.62
2023-04-05T13:19:26.192Z,66.54
2023-04-05T13:21:54.317Z,66.44
2023-04-05T13:24:22.452Z,66.61
2023-04-05T13:26:50.811Z,66.57
2023-04-05T13:29:19.273Z,66.95
2023-04-05T13:31:47.448Z,67.15
2023-04-05T13:34:15.738Z,67.40
2023-04-05T13:36:43.862Z,67.58
2023-04-05T13:39:13.100Z,67.59
2023-04-05T13:41:42.068Z,67.56
2023-04-05T13:44:10.154Z,67.65
2023-04-05T13:46:38.588Z,67.60
2023-04-05T13:49:06.732Z,67.50
2023-04-05T13:51:36.974Z,67.55
2023-04-05T13:54:05.791Z,67.61
2023-04-05T13:56:34.796Z,67.53
2023-04-05T13:59:03.129Z,67.01
2023-04-05T14:01:31.458Z,66.66
2023-04-05T14:04:00.523Z,66.68
2023-04-05T14:06:28.683Z,66.49
2023-04-05T14:08:56.869Z,66.63
2023-04-05T14:11:26.591Z,66.72
2023-04-05T14:13:55.044Z,66.81
2023-04-05T14:16:23.176Z,66.78
2023-04-05T14:18:57.550Z,67.04
2023-04-05T14:21:26.473Z,67.01
2023-04-05T14:23:58.015Z,67.11
2023-04-05T14:26:26.369Z,67.32
2023-04-05T14:28:54.569Z,67.21
2023-04-05T14:31:26.380Z,67.14
2023-04-05T14:33:55.530Z,67.15
2023-04-05T14:36:23.629Z,66.85
2023-04-05T14:38:56.557Z,66.80
2023-04-05T14:41:25.188Z,66.72
2023-04-05T14:43:53.684Z,66.60
2023-04-05T14:46:21.936Z,66.65
2023-04-05T14:48:50.186Z,66.60
2023-04-05T14:51:18.358Z,66.64
2023-04-05T14:53:46.596Z,66.62
2023-04-05T14:56:16.154Z,66.59
2023-04-05T14:58:44.503Z,66.45
2023-04-05T15:01:12.952Z,66.29
2023-04-05T15:03:42.935Z,66.14
2023-04-05T15:06:11.110Z,66.04
2023-04-05T15:08:39.358Z,66.11
2023-04-05T15:11:11.583Z,66.04
2023-04-05T15:13:39.705Z,66.20
2023-04-05T15:16:07.853Z,66.31
2023-04-05T15:18:37.077Z,66.51
2023-04-05T15:21:05.659Z,66.26
2023-04-05T15:23:39.614Z,66.16
2023-04-05T15:26:07.738Z,65.84
2023-04-05T15:28:35.893Z,66.00
2023-04-05T15:31:04.089Z,66.23
2023-04-05T15:33:32.406Z,66.07
2023-04-05T15:36:00.788Z,66.04
2023-04-05T15:38:29.645Z,65.78
2023-04-05T15:40:58.097Z,65.66
2023-04-05T15:43:26.742Z,65.61
2023-04-05T15:45:55.019Z,65.74
2023-04-05T15:48:23.178Z,65.25
2023-04-05T15:50:51.447Z,65.42
2023-04-05T15:53:19.618Z,65.29
2023-04-05T15:55:47.821Z,65.35
2023-04-05T15:58:16.102Z,65.31
2023-04-05T16:00:45.988Z,65.33
2023-04-05T16:03:14.876Z,65.42
2023-04-05T16:05:43.264Z,65.43
2023-04-05T16:08:13.377Z,65.39
2023-04-05T16:10:42.785Z,65.45
2023-04-05T16:13:11.833Z,65.56
2023-04-05T16:15:41.025Z,65.63
2023-04-05T16:18:10.180Z,65.67
2023-04-05T16:20:38.671Z,65.79
2023-04-05T16:23:08.322Z,65.75
2023-04-05T16:25:36.521Z,65.79
2023-04-05T16:28:06.691Z,65.61
2023-04-05T16:30:35.982Z,65.72
2023-04-05T16:33:04.181Z,65.98
2023-04-05T16:35:32.501Z,66.01
2023-04-05T16:38:00.937Z,66.03
2023-04-05T16:40:29.233Z,66.37
2023-04-05T16:42:57.355Z,66.21
2023-04-05T16:45:26.757Z,66.03
2023-04-05T16:47:54.926Z,65.90
2023-04-05T16:50:23.282Z,65.94
2023-04-05T16:52:51.513Z,66.30
2023-04-05T16:55:19.958Z,66.36
2023-04-05T16:57:49.795Z,66.40
2023-04-05T17:00:19.147Z,66.32
2023-04-05T17:03:07.164Z,66.59
2023-04-05T17:05:36.417Z,66.40
2023-04-05T17:08:04.895Z,66.31
2023-04-05T17:10:33.020Z,66.37
2023-04-05T17:13:01.174Z,66.36
2023-04-05T17:15:29.464Z,66.27
2023-04-05T17:17:57.946Z,66.40
2023-04-05T17:20:26.608Z,66.59
2023-04-05T17:22:54.937Z,66.43
2023-04-05T17:25:23.093Z,66.46
2023-04-05T17:27:51.441Z,66.38
2023-04-05T17:30:19.636Z,66.23
2023-04-05T17:32:52.581Z,66.21
2023-04-05T17:35:20.882Z,66.23
2023-04-05T17:37:49.833Z,66.47
2023-04-05T17:40:18.849Z,66.21
2023-04-05T17:42:48.361Z,66.16
2023-04-05T17:45:16.912Z,65.85
2023-04-05T17:47:46.531Z,66.07
2023-04-05T17:50:14.724Z,66.23
2023-04-05T17:52:44.480Z,66.22
2023-04-05T17:55:12.628Z,65.94
2023-04-05T17:57:41.615Z,65.78
2023-04-05T18:00:10.072Z,65.44
2023-04-05T18:02:40.934Z,65.40
2023-04-05T18:05:10.402Z,65.45
2023-04-05T18:07:38.543Z,65.51
2023-04-05T18:10:07.492Z,65.50
2023-04-05T18:12:36.204Z,65.51
2023-04-05T18:15:04.524Z,65.55
2023-04-05T18:17:34.233Z,65.36
2023-04-05T18:20:02.766Z,65.18
2023-04-05T18:22:37.839Z,65.02
2023-04-05T18:25:08.740Z,65.08
2023-04-05T18:27:37.404Z,65.19
2023-04-05T18:30:05.978Z,65.08
2023-04-05T18:32:34.968Z,64.94
2023-04-05T18:35:03.210Z,64.79
2023-04-05T18:37:31.934Z,64.50
2023-04-05T18:40:00.011Z,64.46
2023-04-05T18:42:32.976Z,64.24
2023-04-05T18:45:01.578Z,64.13
2023-04-05T18:47:29.927Z,64.08
2023-04-05T18:49:58.195Z,63.88
2023-04-05T18:52:33.434Z,63.87
2023-04-05T18:55:03.573Z,63.65
2023-04-05T18:57:31.746Z,63.74
2023-04-05T19:00:00.737Z,63.71
2023-04-05T19:02:31.151Z,63.62
2023-04-05T19:04:59.408Z,63.60
2023-04-05T19:07:27.637Z,63.41
2023-04-05T19:09:56.359Z,63.31
2023-04-05T19:12:24.525Z,63.40
2023-04-05T19:14:55.414Z,63.44
2023-04-05T19:17:24.048Z,63.20
2023-04-05T19:19:52.283Z,63.08
2023-04-05T19:22:20.409Z,63.08
2023-04-05T19:24:48.532Z,62.96
2023-04-05T19:27:16.732Z,63.07
2023-04-05T19:29:45.386Z,63.01
2023-04-05T19:32:14.046Z,63.15
2023-04-05T19:34:42.166Z,62.98
2023-04-05T19:37:10.516Z,63.03
2023-04-05T19:39:38.627Z,63.11
2023-04-05T19:42:08.055Z,62.94
2023-04-05T19:44:50.819Z,62.85
2023-04-05T19:47:20.460Z,62.94
2023-04-05T19:49:49.415Z,62.98
2023-04-05T19:52:41.011Z,62.91
2023-04-05T19:55:29.800Z,62.88
2023-04-05T19:57:58.591Z,62.85
2023-04-05T20:00:33.305Z,62.77
2023-04-05T20:03:01.929Z,62.75
2023-04-05T20:05:47.587Z,62.81
2023-04-05T20:08:17.381Z,62.81
2023-04-05T20:10:47.925Z,62.82
2023-04-05T20:13:19.957Z,62.85
2023-04-05T20:15:52.802Z,62.81
2023-04-05T20:18:24.738Z,62.67
2023-04-05T20:20:53.704Z,62.74
2023-04-05T20:23:23.053Z,62.78
2023-04-05T20:25:52.290Z,62.93
2023-04-05T20:28:30.299Z,62.86
2023-04-05T20:30:58.554Z,62.90
2023-04-05T20:33:44.973Z,63.03
2023-04-05T20:36:13.671Z,62.94
2023-04-05T20:38:43.299Z,62.96
2023-04-05T20:41:12.288Z,63.03
2023-04-05T20:43:40.638Z,62.99
2023-04-05T20:46:08.830Z,63.17
2023-04-05T20:48:37.293Z,63.14
2023-04-05T20:51:07.763Z,63.28
2023-04-05T20:53:36.717Z,63.36
2023-04-05T20:56:06.011Z,63.27
2023-04-05T20:58:34.864Z,63.20
2023-04-05T21:01:03.506Z,63.32
2023-04-05T21:03:39.379Z,63.31
2023-04-05T21:06:08.499Z,63.33
2023-04-05T21:08:37.150Z,63.33
2023-04-05T21:11:06.897Z,63.59
2023-04-05T21:13:37.135Z,63.92
2023-04-05T21:16:05.780Z,64.22
2023-04-05T21:18:35.153Z,63.93
2023-04-05T21:21:03.470Z,63.89
2023-04-05T21:23:34.238Z,64.03
2023-04-05T21:26:04.544Z,63.99
2023-04-05T21:28:33.391Z,64.16
2023-04-05T21:31:02.784Z,64.15
2023-04-05T21:33:31.381Z,64.14
2023-04-05T21:35:59.728Z,64.13
2023-04-05T21:38:27.896Z,64.27
2023-04-05T21:40:56.208Z,64.26
2023-04-05T21:43:25.994Z,64.08
2023-04-05T21:45:54.195Z,64.13
2023-04-05T21:48:24.827Z,64.20
2023-04-05T21:50:53.364Z,64.27
2023-04-05T21:53:25.544Z,64.28
2023-04-05T21:55:56.504Z,64.27
2023-04-05T21:58:26.603Z,64.16
2023-04-05T22:00:55.012Z,64.16
2023-04-05T22:03:23.609Z,64.13
2023-04-05T22:05:52.257Z,64.01
2023-04-05T22:08:21.148Z,64.05
2023-04-05T22:10:49.618Z,63.90
2023-04-05T22:13:19.553Z,63.64
2023-04-05T22:15:47.735Z,63.82
2023-04-05T22:18:16.151Z,63.74
2023-04-05T22:20:44.327Z,63.82
2023-04-05T22:23:12.569Z,63.75
2023-04-05T22:25:42.140Z,63.56
2023-04-05T22:28:10.833Z,63.58
2023-04-05T22:33:10.575Z,63.44
2023-04-05T22:35:39.109Z,63.18
2023-04-05T22:38:07.349Z,63.07
2023-04-05T22:40:35.731Z,63.13
2023-04-05T22:43:04.184Z,63.12
2023-04-05T22:45:32.910Z,63.17
2023-04-05T22:48:01.503Z,63.21
2023-04-05T22:50:29.748Z,63.14
2023-04-05T22:52:58.231Z,63.24
2023-04-05T22:55:26.633Z,63.15
2023-04-05T22:57:54.775Z,63.09
2023-04-05T23:00:23.259Z,63.00
2023-04-05T23:02:51.960Z,63.13
2023-04-05T23:05:20.189Z,63.04
2023-04-05T23:07:48.483Z,63.02
2023-04-05T23:10:17.474Z,62.95
2023-04-05T23:12:46.741Z,62.87
2023-04-05T23:15:14.954Z,62.83
2023-04-05T23:17:43.608Z,62.80
2023-04-05T23:20:12.349Z,62.97
2023-04-05T23:22:40.548Z,63.06
2023-04-05T23:25:09.250Z,63.01
2023-04-05T23:27:37.434Z,63.15
2023-04-05T23:30:07.080Z,63.11
2023-04-05T23:32:36.292Z,63.01
2023-04-05T23:35:04.600Z,62.94
2023-04-05T23:37:33.575Z,62.91
2023-04-05T23:40:01.808Z,62.99
2023-04-05T23:42:30.883Z,63.07
2023-04-05T23:45:02.099Z,62.90
2023-04-05T23:47:30.655Z,63.01
2023-04-05T23:49:59.405Z,62.92
2023-04-05T23:52:27.585Z,62.99
2023-04-05T23:54:56.228Z,63.02
2023-04-05T23:57:25.135Z,63.00
2023-04-05T23:59:53.227Z,63.00
